createdAt,value
2017-02-22T00:00:40.808Z,0
2017-02-22T00:01:51.542Z,0
2017-02-22T00:03:02.261Z,0
2017-02-22T00:04:12.960Z,0
2017-02-22T00:05:23.259Z,0
2017-02-22T00:06:33.951Z,0
2017-02-22T00:07:44.683Z,0
2017-02-22T00:08:54.984Z,0
2017-02-22T00:10:05.294Z,0
2017-02-22T00:11:15.621Z,0
2017-02-22T00:12:26.318Z,0
2017-02-22T00:13:37.014Z,0
2017-02-22T00:14:47.711Z,0
2017-02-22T00:15:58.031Z,0
2017-02-22T00:17:08.345Z,0
2017-02-22T00:18:18.652Z,0
2017-02-22T00:19:29.344Z,0
2017-02-22T00:20:40.041Z,0
2017-02-22T00:21:50.738Z,0
2017-02-22T00:23:01.432Z,0
2017-02-22T00:24:11.728Z,0
2017-02-22T00:25:22.453Z,0
2017-02-22T00:26:33.167Z,0
2017-02-22T00:27:43.859Z,0
2017-02-22T00:28:53.774Z,0
2017-02-22T00:30:04.486Z,0
2017-02-22T00:31:14.780Z,0
2017-02-22T00:32:25.500Z,0
2017-02-22T00:33:36.191Z,0
2017-02-22T00:34:46.895Z,0
2017-02-22T00:35:57.195Z,0
2017-02-22T00:37:07.914Z,0
2017-02-22T00:38:18.620Z,0
2017-02-22T00:39:31.610Z,0
2017-02-22T00:40:42.330Z,0
2017-02-22T00:41:53.019Z,0
2017-02-22T00:43:03.717Z,0
2017-02-22T00:44:14.034Z,0
2017-02-22T00:45:24.734Z,0
2017-02-22T00:46:35.426Z,0
2017-02-22T00:47:45.737Z,0
2017-02-22T00:48:56.061Z,0
2017-02-22T00:50:05.962Z,0
2017-02-22T00:51:16.669Z,0
2017-02-22T00:52:27.392Z,0
2017-02-22T00:53:38.086Z,0
2017-02-22T00:54:48.775Z,0
2017-02-22T00:55:59.068Z,0
2017-02-22T00:57:09.768Z,0
2017-02-22T00:58:20.466Z,0
2017-02-22T00:59:31.161Z,0
2017-02-22T01:00:41.848Z,0
2017-02-22T01:01:52.553Z,0
2017-02-22T01:03:03.290Z,0
2017-02-22T01:04:14.023Z,0
2017-02-22T01:05:24.711Z,0
2017-02-22T01:06:35.419Z,0
2017-02-22T01:07:46.119Z,0
2017-02-22T01:08:56.808Z,0
2017-02-22T01:10:07.114Z,0
2017-02-22T01:11:17.826Z,0
2017-02-22T01:12:28.529Z,0
2017-02-22T01:13:39.220Z,0
2017-02-22T01:14:49.512Z,0
2017-02-22T01:16:00.215Z,0
2017-02-22T01:17:10.518Z,0
2017-02-22T01:18:21.219Z,0
2017-02-22T01:19:31.940Z,0
2017-02-22T01:20:42.635Z,0
2017-02-22T01:21:53.347Z,0
2017-02-22T01:23:03.665Z,0
2017-02-22T01:24:14.368Z,0
2017-02-22T01:25:25.071Z,0
2017-02-22T01:26:35.759Z,0
2017-02-22T01:27:46.505Z,0
2017-02-22T01:28:57.243Z,0
2017-02-22T01:30:07.960Z,0
2017-02-22T01:31:18.270Z,0
2017-02-22T01:32:28.568Z,0
2017-02-22T01:33:39.270Z,0
2017-02-22T01:34:49.586Z,0
2017-02-22T01:36:00.301Z,0
2017-02-22T01:37:11.002Z,0
2017-02-22T01:38:21.328Z,0
2017-02-22T01:39:32.025Z,0
2017-02-22T01:40:42.721Z,0
2017-02-22T01:41:53.026Z,0
2017-02-22T01:43:03.328Z,0
2017-02-22T01:44:14.020Z,0
2017-02-22T01:45:24.738Z,0
2017-02-22T01:46:35.426Z,0
2017-02-22T01:47:46.120Z,0
2017-02-22T01:48:56.813Z,0
2017-02-22T01:50:07.510Z,0
2017-02-22T01:51:17.814Z,0
2017-02-22T01:52:28.513Z,0
2017-02-22T01:53:39.208Z,0
2017-02-22T01:54:49.511Z,0
2017-02-22T01:56:00.199Z,0
2017-02-22T01:57:10.899Z,0
2017-02-22T01:58:21.609Z,0
2017-02-22T01:59:31.915Z,0
2017-02-22T02:00:42.621Z,0
2017-02-22T02:01:53.321Z,0
2017-02-22T02:03:04.018Z,0
2017-02-22T02:04:14.703Z,0
2017-02-22T02:05:25.408Z,0
2017-02-22T02:06:36.152Z,0
2017-02-22T02:07:46.871Z,0
2017-02-22T02:08:57.194Z,0
2017-02-22T02:10:07.890Z,0
2017-02-22T02:11:18.605Z,0
2017-02-22T02:12:29.312Z,0
2017-02-22T02:13:40.009Z,0
2017-02-22T02:14:50.720Z,0
2017-02-22T02:16:01.416Z,0
2017-02-22T02:17:12.109Z,0
2017-02-22T02:18:22.407Z,0
2017-02-22T02:19:33.094Z,0
2017-02-22T02:20:43.799Z,0
2017-02-22T02:21:54.091Z,0
2017-02-22T02:23:04.808Z,0
2017-02-22T02:24:14.708Z,0
2017-02-22T02:25:25.415Z,0
2017-02-22T02:26:36.117Z,0
2017-02-22T02:27:46.808Z,0
2017-02-22T02:28:57.511Z,0
2017-02-22T02:30:08.242Z,0
2017-02-22T02:31:18.551Z,0
2017-02-22T02:32:29.253Z,0
2017-02-22T02:33:39.956Z,0
2017-02-22T02:34:50.672Z,0
2017-02-22T02:36:01.383Z,0
2017-02-22T02:37:12.084Z,0
2017-02-22T02:38:22.797Z,0
2017-02-22T02:39:33.505Z,0
2017-02-22T02:40:44.212Z,0
2017-02-22T02:41:54.913Z,0
2017-02-22T02:43:05.617Z,0
2017-02-22T02:44:15.923Z,0
2017-02-22T02:45:26.648Z,0
2017-02-22T02:46:37.335Z,0
2017-02-22T02:47:48.060Z,0
2017-02-22T02:48:58.771Z,0
2017-02-22T02:50:09.482Z,0
2017-02-22T02:51:20.190Z,0
2017-02-22T02:52:30.903Z,0
2017-02-22T02:53:41.204Z,0
2017-02-22T02:54:51.518Z,0
2017-02-22T02:56:01.436Z,0
2017-02-22T02:57:12.137Z,0
2017-02-22T02:58:22.837Z,0
2017-02-22T02:59:33.528Z,0
2017-02-22T03:00:44.230Z,0
2017-02-22T03:01:54.934Z,0
2017-02-22T03:03:05.628Z,0
2017-02-22T03:04:15.944Z,0
2017-02-22T03:05:26.650Z,0
2017-02-22T03:06:37.365Z,0
2017-02-22T03:07:48.058Z,0
2017-02-22T03:08:58.761Z,0
2017-02-22T03:10:09.061Z,0
2017-02-22T03:11:19.769Z,0
2017-02-22T03:12:30.483Z,0
2017-02-22T03:13:41.199Z,0
2017-02-22T03:14:51.916Z,0
2017-02-22T03:16:02.618Z,0
2017-02-22T03:17:12.922Z,0
2017-02-22T03:18:23.341Z,0
2017-02-22T03:19:33.660Z,0
2017-02-22T03:20:43.981Z,0
2017-02-22T03:21:54.674Z,0
2017-02-22T03:23:05.387Z,0
2017-02-22T03:24:16.105Z,0
2017-02-22T03:25:26.405Z,0
2017-02-22T03:26:37.136Z,0
2017-02-22T03:27:47.851Z,0
2017-02-22T03:28:58.157Z,0
2017-02-22T03:30:08.849Z,0
2017-02-22T03:31:19.546Z,0
2017-02-22T03:32:30.252Z,0
2017-02-22T03:33:40.565Z,0
2017-02-22T03:34:51.281Z,0
2017-02-22T03:36:01.598Z,0
2017-02-22T03:37:12.297Z,0
2017-02-22T03:38:22.999Z,0
2017-02-22T03:39:33.746Z,0
2017-02-22T03:40:44.445Z,0
2017-02-22T03:41:55.137Z,0
2017-02-22T03:43:05.440Z,0
2017-02-22T03:44:15.730Z,0
2017-02-22T03:45:26.425Z,0
2017-02-22T03:46:37.135Z,0
2017-02-22T03:47:47.827Z,0
2017-02-22T03:48:58.525Z,0
2017-02-22T03:50:09.218Z,0
2017-02-22T03:51:19.925Z,0
2017-02-22T03:52:30.240Z,0
2017-02-22T03:53:40.930Z,0
2017-02-22T03:54:51.651Z,0
2017-02-22T03:56:01.963Z,0
2017-02-22T03:57:12.667Z,0
2017-02-22T03:58:22.989Z,0
2017-02-22T03:59:33.289Z,0
2017-02-22T04:00:43.995Z,0
2017-02-22T04:01:54.691Z,0
2017-02-22T04:03:05.399Z,0
2017-02-22T04:04:15.710Z,0
2017-02-22T04:05:26.415Z,0
2017-02-22T04:06:36.717Z,0
2017-02-22T04:07:47.430Z,0
2017-02-22T04:08:57.743Z,0
2017-02-22T04:10:08.452Z,0
2017-02-22T04:11:19.151Z,0
2017-02-22T04:12:29.449Z,0
2017-02-22T04:13:40.146Z,0
2017-02-22T04:14:50.458Z,0
2017-02-22T04:16:00.771Z,0
2017-02-22T04:17:11.477Z,0
2017-02-22T04:18:22.185Z,0
2017-02-22T04:19:32.479Z,0
2017-02-22T04:20:43.168Z,0
2017-02-22T04:21:53.476Z,0
2017-02-22T04:23:03.802Z,0
2017-02-22T04:24:14.119Z,0
2017-02-22T04:25:24.833Z,0
2017-02-22T04:26:35.547Z,0
2017-02-22T04:27:46.246Z,0
2017-02-22T04:28:56.972Z,0
2017-02-22T04:30:07.674Z,0
2017-02-22T04:31:17.966Z,0
2017-02-22T04:32:28.677Z,0
2017-02-22T04:33:39.380Z,0
2017-02-22T04:34:50.085Z,0
2017-02-22T04:36:00.398Z,0
2017-02-22T04:37:11.094Z,0
2017-02-22T04:38:21.793Z,0
2017-02-22T04:39:32.103Z,0
2017-02-22T04:40:42.849Z,0
2017-02-22T04:41:53.564Z,0
2017-02-22T04:43:03.874Z,0
2017-02-22T04:44:14.175Z,0
2017-02-22T04:45:24.882Z,0
2017-02-22T04:46:35.597Z,0
2017-02-22T04:47:46.319Z,0
2017-02-22T04:48:57.024Z,0
2017-02-22T04:50:07.731Z,0
2017-02-22T04:51:18.054Z,0
2017-02-22T04:52:28.762Z,0
2017-02-22T04:53:39.476Z,0
2017-02-22T04:54:49.805Z,0
2017-02-22T04:56:00.508Z,0
2017-02-22T04:57:10.454Z,0
2017-02-22T04:58:21.164Z,0
2017-02-22T04:59:31.871Z,0
2017-02-22T05:00:42.563Z,0
2017-02-22T05:01:52.467Z,0
2017-02-22T05:03:02.784Z,0
2017-02-22T05:04:13.104Z,0
2017-02-22T05:05:23.823Z,0
2017-02-22T05:06:34.535Z,0
2017-02-22T05:07:45.241Z,0
2017-02-22T05:08:55.969Z,0
2017-02-22T05:10:05.870Z,0
2017-02-22T05:11:16.574Z,0
2017-02-22T05:12:26.872Z,0
2017-02-22T05:13:37.572Z,0
2017-02-22T05:14:48.272Z,0
2017-02-22T05:15:58.591Z,0
2017-02-22T05:17:09.307Z,0
2017-02-22T05:18:19.620Z,0
2017-02-22T05:19:30.320Z,0
2017-02-22T05:20:41.031Z,0
2017-02-22T05:21:51.730Z,0
2017-02-22T05:23:02.428Z,0
2017-02-22T05:24:12.734Z,0
2017-02-22T05:25:23.037Z,0
2017-02-22T05:26:33.738Z,0
2017-02-22T05:27:44.454Z,0
2017-02-22T05:28:54.774Z,0
2017-02-22T05:30:05.487Z,0
2017-02-22T05:31:16.192Z,0
2017-02-22T05:32:26.902Z,0
2017-02-22T05:33:37.203Z,0
2017-02-22T05:34:47.917Z,0
2017-02-22T05:35:58.220Z,0
2017-02-22T05:37:08.936Z,0
2017-02-22T05:38:19.649Z,0
2017-02-22T05:39:30.347Z,0
2017-02-22T05:40:41.054Z,0
2017-02-22T05:41:51.385Z,0
2017-02-22T05:43:01.300Z,0
2017-02-22T05:44:11.625Z,0
2017-02-22T05:45:22.318Z,0
2017-02-22T05:46:33.037Z,0
2017-02-22T05:47:43.754Z,0
2017-02-22T05:48:54.049Z,0
2017-02-22T05:50:04.756Z,0
2017-02-22T05:51:15.470Z,0
2017-02-22T05:52:25.781Z,0
2017-02-22T05:53:36.501Z,0
2017-02-22T05:54:46.815Z,0
2017-02-22T05:55:57.509Z,0
2017-02-22T05:57:10.225Z,0
2017-02-22T05:58:20.928Z,0
2017-02-22T05:59:31.626Z,0
2017-02-22T06:00:42.322Z,0
2017-02-22T06:01:53.053Z,0
2017-02-22T06:03:03.753Z,0
2017-02-22T06:04:14.459Z,0
2017-02-22T06:05:25.182Z,0
2017-02-22T06:06:35.881Z,0
2017-02-22T06:07:46.600Z,0
2017-02-22T06:08:57.287Z,0
2017-02-22T06:10:07.626Z,0
2017-02-22T06:11:18.317Z,0
2017-02-22T06:12:29.030Z,0
2017-02-22T06:13:39.729Z,0
2017-02-22T06:14:50.431Z,0
2017-02-22T06:16:01.131Z,0
2017-02-22T06:17:11.832Z,0
2017-02-22T06:18:21.728Z,0
2017-02-22T06:19:31.634Z,0
2017-02-22T06:20:42.353Z,0
2017-02-22T06:21:53.061Z,0
2017-02-22T06:23:03.770Z,0
2017-02-22T06:24:14.076Z,0
2017-02-22T06:25:24.783Z,0
2017-02-22T06:26:35.106Z,0
2017-02-22T06:27:45.417Z,0
2017-02-22T06:28:56.223Z,0
2017-02-22T06:30:06.924Z,0
2017-02-22T06:31:17.229Z,0
2017-02-22T06:32:27.533Z,0
2017-02-22T06:33:38.232Z,5
2017-02-22T06:34:48.946Z,5
2017-02-22T06:35:59.665Z,5
2017-02-22T06:37:09.989Z,5
2017-02-22T06:38:20.707Z,5
2017-02-22T06:39:31.425Z,5
2017-02-22T06:40:42.141Z,5
2017-02-22T06:41:52.870Z,5
2017-02-22T06:43:03.568Z,10
2017-02-22T06:44:14.263Z,10
2017-02-22T06:45:24.963Z,10
2017-02-22T06:46:35.660Z,10
2017-02-22T06:47:46.373Z,10
2017-02-22T06:48:57.075Z,15
2017-02-22T06:50:07.787Z,15
2017-02-22T06:51:18.490Z,15
2017-02-22T06:52:29.187Z,15
2017-02-22T06:53:39.505Z,20
2017-02-22T06:54:49.810Z,20
2017-02-22T06:56:00.517Z,20
2017-02-22T06:57:11.218Z,20
2017-02-22T06:58:21.531Z,25
2017-02-22T06:59:32.229Z,25
2017-02-22T07:00:42.990Z,25
2017-02-22T07:01:53.710Z,25
2017-02-22T07:03:04.008Z,25
2017-02-22T07:04:14.335Z,25
2017-02-22T07:05:25.038Z,25
2017-02-22T07:06:35.751Z,25
2017-02-22T07:07:46.464Z,30
2017-02-22T07:08:56.784Z,30
2017-02-22T07:10:07.491Z,30
2017-02-22T07:11:18.183Z,30
2017-02-22T07:12:28.484Z,30
2017-02-22T07:13:39.178Z,30
2017-02-22T07:14:49.892Z,35
2017-02-22T07:16:00.617Z,35
2017-02-22T07:17:11.308Z,35
2017-02-22T07:18:22.011Z,35
2017-02-22T07:19:32.318Z,35
2017-02-22T07:20:43.026Z,35
2017-02-22T07:21:53.716Z,40
2017-02-22T07:23:04.435Z,40
2017-02-22T07:24:14.344Z,40
2017-02-22T07:25:25.051Z,45
2017-02-22T07:26:35.754Z,45
2017-02-22T07:27:46.450Z,50
2017-02-22T07:28:55.993Z,55
2017-02-22T07:30:06.697Z,60
2017-02-22T07:31:16.991Z,60
2017-02-22T07:32:27.687Z,65
2017-02-22T07:33:38.387Z,65
2017-02-22T07:34:49.084Z,70
2017-02-22T07:35:59.814Z,70
2017-02-22T07:37:10.118Z,70
2017-02-22T07:38:20.828Z,75
2017-02-22T07:39:31.530Z,80
2017-02-22T07:40:41.858Z,80
2017-02-22T07:41:52.149Z,80
2017-02-22T07:43:02.049Z,80
2017-02-22T07:44:12.774Z,85
2017-02-22T07:45:23.084Z,85
2017-02-22T07:46:33.783Z,90
2017-02-22T07:47:44.498Z,90
2017-02-22T07:48:55.234Z,95
2017-02-22T07:50:05.925Z,100
2017-02-22T07:51:16.633Z,105
2017-02-22T07:52:27.349Z,110
2017-02-22T07:53:38.045Z,115
2017-02-22T07:54:48.738Z,120
2017-02-22T07:55:59.476Z,125
2017-02-22T07:57:10.184Z,130
2017-02-22T07:58:20.905Z,130
2017-02-22T07:59:31.606Z,135
2017-02-22T08:00:42.295Z,135
2017-02-22T08:01:53.004Z,140
2017-02-22T08:03:03.693Z,140
2017-02-22T08:04:14.394Z,140
2017-02-22T08:05:24.693Z,140
2017-02-22T08:06:35.386Z,140
2017-02-22T08:07:46.076Z,145
2017-02-22T08:08:56.785Z,150
2017-02-22T08:10:07.113Z,150
2017-02-22T08:11:17.828Z,160
2017-02-22T08:12:28.521Z,165
2017-02-22T08:13:39.230Z,170
2017-02-22T08:14:49.549Z,175
2017-02-22T08:16:00.239Z,180
2017-02-22T08:17:10.551Z,185
2017-02-22T08:18:21.249Z,190
2017-02-22T08:19:31.941Z,195
2017-02-22T08:20:42.650Z,200
2017-02-22T08:21:53.367Z,205
2017-02-22T08:23:03.695Z,205
2017-02-22T08:24:13.999Z,210
2017-02-22T08:25:24.688Z,210
2017-02-22T08:26:35.002Z,210
2017-02-22T08:27:45.697Z,215
2017-02-22T08:28:56.404Z,215
2017-02-22T08:30:06.701Z,215
2017-02-22T08:31:17.403Z,220
2017-02-22T08:32:27.722Z,220
2017-02-22T08:33:38.017Z,220
2017-02-22T08:34:48.745Z,225
2017-02-22T08:35:59.437Z,225
2017-02-22T08:37:10.152Z,225
2017-02-22T08:38:20.066Z,225
2017-02-22T08:39:30.763Z,225
2017-02-22T08:40:41.454Z,225
2017-02-22T08:41:52.154Z,225
2017-02-22T08:43:02.844Z,225
2017-02-22T08:44:13.160Z,225
2017-02-22T08:45:23.872Z,220
2017-02-22T08:46:34.564Z,215
2017-02-22T08:47:45.273Z,215
2017-02-22T08:48:55.960Z,215
2017-02-22T08:50:06.670Z,220
2017-02-22T08:51:16.967Z,215
2017-02-22T08:52:27.657Z,195
2017-02-22T08:53:38.355Z,205
2017-02-22T08:54:49.066Z,185
2017-02-22T08:55:59.780Z,175
2017-02-22T08:57:10.110Z,175
2017-02-22T08:58:20.422Z,185
2017-02-22T08:59:31.156Z,205
2017-02-22T09:00:41.461Z,195
2017-02-22T09:01:52.150Z,215
2017-02-22T09:03:02.469Z,235
2017-02-22T09:04:12.804Z,240
2017-02-22T09:05:22.705Z,240
2017-02-22T09:06:33.400Z,250
2017-02-22T09:07:44.097Z,245
2017-02-22T09:08:54.409Z,245
2017-02-22T09:10:04.716Z,245
2017-02-22T09:11:15.424Z,245
2017-02-22T09:12:26.119Z,245
2017-02-22T09:13:36.822Z,250
2017-02-22T09:14:47.530Z,250
2017-02-22T09:15:57.854Z,250
2017-02-22T09:17:07.801Z,250
2017-02-22T09:18:18.500Z,255
2017-02-22T09:19:29.243Z,255
2017-02-22T09:20:39.982Z,255
2017-02-22T09:21:50.677Z,255
2017-02-22T09:23:01.394Z,255
2017-02-22T09:24:12.099Z,260
2017-02-22T09:25:22.810Z,260
2017-02-22T09:26:33.523Z,260
2017-02-22T09:27:44.239Z,260
2017-02-22T09:28:54.534Z,270
2017-02-22T09:30:05.245Z,265
2017-02-22T09:31:15.152Z,265
2017-02-22T09:32:25.858Z,265
2017-02-22T09:33:36.160Z,270
2017-02-22T09:34:47.218Z,270
2017-02-22T09:35:57.930Z,270
2017-02-22T09:37:08.637Z,270
2017-02-22T09:38:19.341Z,270
2017-02-22T09:39:30.061Z,275
2017-02-22T09:40:40.776Z,275
2017-02-22T09:41:51.106Z,275
2017-02-22T09:43:01.824Z,285
2017-02-22T09:44:12.134Z,280
2017-02-22T09:45:22.439Z,280
2017-02-22T09:46:33.141Z,280
2017-02-22T09:47:43.855Z,285
2017-02-22T09:48:54.562Z,290
2017-02-22T09:50:05.263Z,285
2017-02-22T09:51:15.988Z,285
2017-02-22T09:52:26.317Z,290
2017-02-22T09:53:37.040Z,290
2017-02-22T09:54:47.726Z,290
2017-02-22T09:55:58.442Z,290
2017-02-22T09:57:09.156Z,290
2017-02-22T09:58:19.867Z,295
2017-02-22T09:59:30.565Z,295
2017-02-22T10:00:41.265Z,295
2017-02-22T10:01:51.977Z,295
2017-02-22T10:03:02.302Z,300
2017-02-22T10:04:12.621Z,300
2017-02-22T10:05:22.924Z,300
2017-02-22T10:06:33.628Z,305
2017-02-22T10:07:44.339Z,305
2017-02-22T10:08:55.046Z,305
2017-02-22T10:10:05.758Z,305
2017-02-22T10:11:16.055Z,310
2017-02-22T10:12:26.369Z,310
2017-02-22T10:13:36.691Z,315
2017-02-22T10:14:46.631Z,310
2017-02-22T10:15:57.336Z,315
2017-02-22T10:17:07.641Z,315
2017-02-22T10:18:18.345Z,315
2017-02-22T10:19:29.052Z,320
2017-02-22T10:20:39.738Z,320
2017-02-22T10:21:50.453Z,320
2017-02-22T10:23:00.746Z,320
2017-02-22T10:24:11.102Z,320
2017-02-22T10:25:21.409Z,325
2017-02-22T10:26:32.137Z,325
2017-02-22T10:27:42.836Z,325
2017-02-22T10:28:53.542Z,325
2017-02-22T10:30:03.854Z,325
2017-02-22T10:31:14.552Z,325
2017-02-22T10:32:24.481Z,325
2017-02-22T10:33:35.186Z,325
2017-02-22T10:34:45.898Z,330
2017-02-22T10:35:55.802Z,330
2017-02-22T10:37:06.498Z,330
2017-02-22T10:38:17.212Z,330
2017-02-22T10:39:27.938Z,330
2017-02-22T10:40:38.626Z,330
2017-02-22T10:41:49.347Z,330
2017-02-22T10:43:00.052Z,330
2017-02-22T10:44:10.373Z,330
2017-02-22T10:45:21.070Z,335
2017-02-22T10:46:31.384Z,335
2017-02-22T10:47:42.091Z,335
2017-02-22T10:48:52.819Z,335
2017-02-22T10:50:03.510Z,335
2017-02-22T10:51:14.204Z,335
2017-02-22T10:52:24.528Z,335
2017-02-22T10:53:35.236Z,335
2017-02-22T10:54:45.953Z,335
2017-02-22T10:55:56.665Z,340
2017-02-22T10:57:07.373Z,340
2017-02-22T10:58:17.688Z,340
2017-02-22T10:59:28.384Z,340
2017-02-22T11:00:39.123Z,340
2017-02-22T11:01:49.823Z,340
2017-02-22T11:03:00.521Z,345
2017-02-22T11:04:11.233Z,345
2017-02-22T11:05:21.157Z,365
2017-02-22T11:06:31.845Z,470
2017-02-22T11:07:42.568Z,545
2017-02-22T11:08:52.872Z,590
2017-02-22T11:10:03.186Z,630
2017-02-22T11:11:13.504Z,620
2017-02-22T11:12:24.221Z,600
2017-02-22T11:13:34.940Z,590
2017-02-22T11:14:45.249Z,580
2017-02-22T11:15:55.959Z,580
2017-02-22T11:17:06.671Z,575
2017-02-22T11:18:16.968Z,580
2017-02-22T11:19:26.903Z,580
2017-02-22T11:20:37.634Z,585
2017-02-22T11:21:48.331Z,585
2017-02-22T11:22:59.035Z,590
2017-02-22T11:24:09.798Z,590
2017-02-22T11:25:20.116Z,590
2017-02-22T11:26:30.831Z,590
2017-02-22T11:27:41.545Z,600
2017-02-22T11:28:51.867Z,600
2017-02-22T11:30:02.608Z,600
2017-02-22T11:31:12.928Z,605
2017-02-22T11:32:23.639Z,615
2017-02-22T11:33:34.354Z,620
2017-02-22T11:34:45.067Z,625
2017-02-22T11:35:55.795Z,625
2017-02-22T11:37:06.108Z,630
2017-02-22T11:38:16.414Z,635
2017-02-22T11:39:27.123Z,645
2017-02-22T11:40:37.457Z,640
2017-02-22T11:41:47.769Z,650
2017-02-22T11:42:58.491Z,675
2017-02-22T11:44:09.195Z,725
2017-02-22T11:45:19.907Z,705
2017-02-22T11:46:30.608Z,695
2017-02-22T11:47:40.926Z,695
2017-02-22T11:48:51.627Z,695
2017-02-22T11:50:02.326Z,700
2017-02-22T11:51:12.652Z,705
2017-02-22T11:52:23.379Z,710
2017-02-22T11:53:34.088Z,705
2017-02-22T11:54:44.405Z,650
2017-02-22T11:55:55.113Z,690
2017-02-22T11:57:05.426Z,710
2017-02-22T11:58:16.147Z,730
2017-02-22T11:59:26.873Z,730
2017-02-22T12:00:37.600Z,730
2017-02-22T12:01:47.536Z,740
2017-02-22T12:02:58.264Z,745
2017-02-22T12:04:08.590Z,750
2017-02-22T12:05:18.917Z,735
2017-02-22T12:06:29.640Z,730
2017-02-22T12:07:40.626Z,755
2017-02-22T12:08:50.942Z,765
2017-02-22T12:10:01.651Z,770
2017-02-22T12:11:12.360Z,750
2017-02-22T12:12:22.682Z,760
2017-02-22T12:13:33.394Z,750
2017-02-22T12:14:44.138Z,740
2017-02-22T12:15:54.876Z,735
2017-02-22T12:17:05.603Z,765
2017-02-22T12:18:16.319Z,775
2017-02-22T12:19:27.037Z,710
2017-02-22T12:20:37.777Z,665
2017-02-22T12:21:48.532Z,675
2017-02-22T12:22:59.267Z,720
2017-02-22T12:24:09.979Z,750
2017-02-22T12:25:20.699Z,840
2017-02-22T12:26:31.428Z,940
2017-02-22T12:27:42.154Z,1030
2017-02-22T12:28:52.888Z,1060
2017-02-22T12:30:03.596Z,1075
2017-02-22T12:31:13.937Z,1065
2017-02-22T12:32:24.247Z,1070
2017-02-22T12:33:34.959Z,1045
2017-02-22T12:34:45.671Z,1050
2017-02-22T12:35:56.402Z,990
2017-02-22T12:37:06.738Z,1075
2017-02-22T12:38:17.058Z,1180
2017-02-22T12:39:27.786Z,1095
2017-02-22T12:40:38.493Z,985
2017-02-22T12:41:49.216Z,1035
2017-02-22T12:42:59.939Z,1050
2017-02-22T12:44:10.252Z,1015
2017-02-22T12:45:21.019Z,1145
2017-02-22T12:46:31.367Z,1235
2017-02-22T12:47:42.081Z,1290
2017-02-22T12:48:52.405Z,1205
2017-02-22T12:50:02.737Z,1500
2017-02-22T12:51:13.069Z,1845
2017-02-22T12:52:23.788Z,1655
2017-02-22T12:53:34.110Z,1315
2017-02-22T12:54:44.426Z,1445
2017-02-22T12:55:54.783Z,1555
2017-02-22T12:57:05.518Z,1650
2017-02-22T12:58:16.239Z,1660
2017-02-22T12:59:26.968Z,1710
2017-02-22T13:00:37.683Z,1720
2017-02-22T13:01:48.413Z,1720
2017-02-22T13:02:59.135Z,1610
2017-02-22T13:04:09.858Z,1510
2017-02-22T13:05:20.572Z,1345
2017-02-22T13:06:30.886Z,1290
2017-02-22T13:07:41.623Z,1195
2017-02-22T13:08:52.343Z,995
2017-02-22T13:10:03.063Z,980
2017-02-22T13:11:12.990Z,885
2017-02-22T13:12:23.332Z,790
2017-02-22T13:13:33.651Z,745
2017-02-22T13:14:44.375Z,730
2017-02-22T13:15:55.106Z,690
2017-02-22T13:17:05.424Z,635
2017-02-22T13:18:15.760Z,625
2017-02-22T13:19:26.490Z,615
2017-02-22T13:20:37.210Z,575
2017-02-22T13:21:47.525Z,545
2017-02-22T13:22:58.249Z,535
2017-02-22T13:24:08.985Z,530
2017-02-22T13:25:19.710Z,535
2017-02-22T13:26:30.427Z,525
2017-02-22T13:27:41.172Z,515
2017-02-22T13:28:51.893Z,510
2017-02-22T13:30:02.636Z,510
2017-02-22T13:31:13.360Z,530
2017-02-22T13:32:24.080Z,535
2017-02-22T13:33:34.789Z,525
2017-02-22T13:34:45.505Z,530
2017-02-22T13:35:55.481Z,485
2017-02-22T13:37:05.790Z,525
2017-02-22T13:38:16.123Z,540
2017-02-22T13:39:26.837Z,555
2017-02-22T13:40:37.545Z,470
2017-02-22T13:41:48.263Z,455
2017-02-22T13:42:58.589Z,470
2017-02-22T13:44:09.304Z,455
2017-02-22T13:45:20.018Z,450
2017-02-22T13:46:30.336Z,450
2017-02-22T13:47:41.060Z,435
2017-02-22T13:48:51.774Z,430
2017-02-22T13:50:02.485Z,420
2017-02-22T13:51:12.404Z,430
2017-02-22T13:52:22.717Z,430
2017-02-22T13:53:33.422Z,420
2017-02-22T13:54:44.129Z,415
2017-02-22T13:55:54.864Z,430
2017-02-22T13:57:05.192Z,450
2017-02-22T13:58:15.493Z,430
2017-02-22T13:59:26.187Z,405
2017-02-22T14:00:36.894Z,395
2017-02-22T14:01:47.611Z,380
2017-02-22T14:02:57.923Z,370
2017-02-22T14:04:08.258Z,360
2017-02-22T14:05:18.962Z,355
2017-02-22T14:06:29.666Z,350
2017-02-22T14:07:40.381Z,340
2017-02-22T14:08:51.091Z,335
2017-02-22T14:10:01.006Z,325
2017-02-22T14:11:11.708Z,315
2017-02-22T14:12:22.026Z,305
2017-02-22T14:13:32.726Z,300
2017-02-22T14:14:43.455Z,285
2017-02-22T14:15:54.179Z,275
2017-02-22T14:17:04.488Z,260
2017-02-22T14:18:14.787Z,250
2017-02-22T14:19:25.495Z,235
2017-02-22T14:20:36.209Z,220
2017-02-22T14:21:46.530Z,215
2017-02-22T14:22:56.832Z,205
2017-02-22T14:24:07.546Z,200
2017-02-22T14:25:18.269Z,200
2017-02-22T14:26:28.963Z,195
2017-02-22T14:27:39.673Z,190
2017-02-22T14:28:49.584Z,185
2017-02-22T14:30:00.298Z,180
2017-02-22T14:31:10.227Z,175
2017-02-22T14:32:20.155Z,170
2017-02-22T14:33:30.480Z,165
2017-02-22T14:34:41.207Z,160
2017-02-22T14:35:51.931Z,160
2017-02-22T14:37:01.855Z,155
2017-02-22T14:38:12.577Z,150
2017-02-22T14:39:22.915Z,145
2017-02-22T14:40:33.607Z,140
2017-02-22T14:41:44.312Z,140
2017-02-22T14:42:55.032Z,135
2017-02-22T14:44:05.740Z,130
2017-02-22T14:45:16.445Z,125
2017-02-22T14:46:27.170Z,120
2017-02-22T14:47:37.905Z,115
2017-02-22T14:48:48.208Z,110
2017-02-22T14:49:58.531Z,105
2017-02-22T14:51:09.237Z,100
2017-02-22T14:52:19.950Z,100
2017-02-22T14:53:30.663Z,95
2017-02-22T14:54:41.396Z,95
2017-02-22T14:55:52.097Z,90
2017-02-22T14:57:02.433Z,90
2017-02-22T14:58:12.782Z,85
2017-02-22T14:59:23.496Z,85
2017-02-22T15:00:34.199Z,85
2017-02-22T15:01:44.923Z,85
2017-02-22T15:02:55.640Z,85
2017-02-22T15:04:06.336Z,85
2017-02-22T15:05:16.642Z,85
2017-02-22T15:06:27.341Z,85
2017-02-22T15:07:38.043Z,85
2017-02-22T15:08:48.740Z,80
2017-02-22T15:09:59.470Z,80
2017-02-22T15:11:10.188Z,75
2017-02-22T15:12:20.513Z,75
2017-02-22T15:13:31.220Z,70
2017-02-22T15:14:41.918Z,70
2017-02-22T15:15:52.673Z,70
2017-02-22T15:17:03.372Z,70
2017-02-22T15:18:13.671Z,65
2017-02-22T15:19:24.374Z,60
2017-02-22T15:20:35.083Z,60
2017-02-22T15:21:45.788Z,55
2017-02-22T15:22:56.504Z,55
2017-02-22T15:24:07.216Z,55
2017-02-22T15:25:17.129Z,50
2017-02-22T15:26:27.828Z,50
2017-02-22T15:27:38.522Z,50
2017-02-22T15:28:49.225Z,50
2017-02-22T15:29:59.918Z,50
2017-02-22T15:31:10.215Z,50
2017-02-22T15:32:20.906Z,50
2017-02-22T15:33:31.602Z,50
2017-02-22T15:34:42.304Z,45
2017-02-22T15:35:53.014Z,45
2017-02-22T15:37:03.321Z,45
2017-02-22T15:38:13.652Z,40
2017-02-22T15:39:26.448Z,40
2017-02-22T15:40:37.151Z,40
2017-02-22T15:41:47.868Z,40
2017-02-22T15:42:58.191Z,35
2017-02-22T15:44:08.917Z,35
2017-02-22T15:45:19.617Z,35
2017-02-22T15:46:30.321Z,35
2017-02-22T15:47:41.021Z,30
2017-02-22T15:48:51.738Z,30
2017-02-22T15:50:02.442Z,30
2017-02-22T15:51:13.172Z,25
2017-02-22T15:52:23.871Z,25
2017-02-22T15:53:34.582Z,25
2017-02-22T15:54:44.502Z,25
2017-02-22T15:55:55.217Z,20
2017-02-22T15:57:05.532Z,20
2017-02-22T15:58:16.226Z,20
2017-02-22T15:59:26.945Z,20
2017-02-22T16:00:37.650Z,15
2017-02-22T16:01:48.351Z,15
2017-02-22T16:02:59.076Z,15
2017-02-22T16:04:09.377Z,15
2017-02-22T16:05:20.079Z,15
2017-02-22T16:06:30.777Z,15
2017-02-22T16:07:41.481Z,15
2017-02-22T16:08:52.200Z,15
2017-02-22T16:10:02.537Z,15
2017-02-22T16:11:12.834Z,15
2017-02-22T16:12:23.549Z,10
2017-02-22T16:13:34.250Z,10
2017-02-22T16:14:45.317Z,10
2017-02-22T16:15:55.242Z,10
2017-02-22T16:17:05.573Z,10
2017-02-22T16:18:16.269Z,10
2017-02-22T16:19:26.979Z,10
2017-02-22T16:20:37.692Z,10
2017-02-22T16:21:48.432Z,10
2017-02-22T16:22:59.160Z,5
2017-02-22T16:24:09.071Z,5
2017-02-22T16:25:19.806Z,5
2017-02-22T16:26:30.501Z,5
2017-02-22T16:27:41.216Z,5
2017-02-22T16:28:50.744Z,5
2017-02-22T16:30:01.456Z,5
2017-02-22T16:31:12.156Z,5
2017-02-22T16:32:22.860Z,5
2017-02-22T16:33:33.570Z,0
2017-02-22T16:34:43.877Z,0
2017-02-22T16:35:54.201Z,0
2017-02-22T16:37:04.908Z,0
2017-02-22T16:38:15.647Z,0
2017-02-22T16:39:26.370Z,0
2017-02-22T16:40:37.083Z,0
2017-02-22T16:41:47.808Z,0
2017-02-22T16:42:58.508Z,0
2017-02-22T16:44:09.202Z,0
2017-02-22T16:45:19.527Z,0